sensor_id;sensor_type;location;lat;lon;timestamp;temperature;humidity
61386;DHT22;47256;18.904;-99.054;2023-02-01T00:01:10;26.60;57.70
61386;DHT22;47256;18.904;-99.054;2023-02-01T00:03:37;26.60;58.00
61386;DHT22;47256;18.904;-99.054;2023-02-01T00:06:05;26.50;58.20
61386;DHT22;47256;18.904;-99.054;2023-02-01T00:08:32;26.50;59.70
61386;DHT22;47256;18.904;-99.054;2023-02-01T00:11:11;26.40;58.00
61386;DHT22;47256;18.904;-99.054;2023-02-01T00:13:43;26.40;59.20
61386;DHT22;47256;18.904;-99.054;2023-02-01T00:16:17;26.30;59.50
61386;DHT22;47256;18.904;-99.054;2023-02-01T00:18:46;26.30;60.00
61386;DHT22;47256;18.904;-99.054;2023-02-01T00:21:15;26.20;60.60
61386;DHT22;47256;18.904;-99.054;2023-02-01T00:23:43;26.20;60.30
61386;DHT22;47256;18.904;-99.054;2023-02-01T00:26:35;26.10;60.20
61386;DHT22;47256;18.904;-99.054;2023-02-01T00:29:05;26.00;60.90
61386;DHT22;47256;18.904;-99.054;2023-02-01T00:31:34;26.00;60.80
61386;DHT22;47256;18.904;-99.054;2023-02-01T00:34:02;25.90;60.90
61386;DHT22;47256;18.904;-99.054;2023-02-01T00:36:29;25.90;61.10
61386;DHT22;47256;18.904;-99.054;2023-02-01T00:38:57;25.90;60.80
61386;DHT22;47256;18.904;-99.054;2023-02-01T00:41:25;25.80;61.10
61386;DHT22;47256;18.904;-99.054;2023-02-01T00:43:53;25.70;61.00
61386;DHT22;47256;18.904;-99.054;2023-02-01T00:46:20;25.70;61.40
61386;DHT22;47256;18.904;-99.054;2023-02-01T00:48:49;25.60;62.30
61386;DHT22;47256;18.904;-99.054;2023-02-01T00:51:21;25.60;62.80
61386;DHT22;47256;18.904;-99.054;2023-02-01T00:53:49;25.60;62.80
61386;DHT22;47256;18.904;-99.054;2023-02-01T00:56:17;25.50;62.60
61386;DHT22;47256;18.904;-99.054;2023-02-01T00:58:45;25.40;62.40
61386;DHT22;47256;18.904;-99.054;2023-02-01T01:01:18;25.40;62.60
61386;DHT22;47256;18.904;-99.054;2023-02-01T01:03:49;25.30;64.80
61386;DHT22;47256;18.904;-99.054;2023-02-01T01:06:20;25.20;64.50
61386;DHT22;47256;18.904;-99.054;2023-02-01T01:08:51;25.10;64.90
61386;DHT22;47256;18.904;-99.054;2023-02-01T01:11:27;25.10;64.30
61386;DHT22;47256;18.904;-99.054;2023-02-01T01:13:56;25.00;63.20
61386;DHT22;47256;18.904;-99.054;2023-02-01T01:16:25;25.00;63.10
61386;DHT22;47256;18.904;-99.054;2023-02-01T01:18:54;24.90;63.90
61386;DHT22;47256;18.904;-99.054;2023-02-01T01:21:22;24.90;63.30
61386;DHT22;47256;18.904;-99.054;2023-02-01T01:23:50;24.90;63.40
61386;DHT22;47256;18.904;-99.054;2023-02-01T01:26:20;24.80;64.10
61386;DHT22;47256;18.904;-99.054;2023-02-01T01:28:48;24.80;63.90
61386;DHT22;47256;18.904;-99.054;2023-02-01T01:31:17;24.60;66.10
61386;DHT22;47256;18.904;-99.054;2023-02-01T01:33:49;24.50;66.40
61386;DHT22;47256;18.904;-99.054;2023-02-01T01:36:17;24.40;66.40
61386;DHT22;47256;18.904;-99.054;2023-02-01T01:38:44;24.40;65.30
61386;DHT22;47256;18.904;-99.054;2023-02-01T01:41:32;24.30;66.50
61386;DHT22;47256;18.904;-99.054;2023-02-01T01:47:16;24.30;66.30
61386;DHT22;47256;18.904;-99.054;2023-02-01T01:49:45;24.30;65.80
61386;DHT22;47256;18.904;-99.054;2023-02-01T01:52:12;24.20;65.90
61386;DHT22;47256;18.904;-99.054;2023-02-01T01:54:45;24.20;64.30
61386;DHT22;47256;18.904;-99.054;2023-02-01T01:57:24;24.20;63.00
61386;DHT22;47256;18.904;-99.054;2023-02-01T02:00:09;24.10;63.30
61386;DHT22;47256;18.904;-99.054;2023-02-01T02:02:46;24.10;63.90
61386;DHT22;47256;18.904;-99.054;2023-02-01T02:05:15;24.10;64.40
61386;DHT22;47256;18.904;-99.054;2023-02-01T02:07:49;24.10;64.10
61386;DHT22;47256;18.904;-99.054;2023-02-01T02:10:18;24.10;64.30
61386;DHT22;47256;18.904;-99.054;2023-02-01T02:12:48;24.10;63.90
61386;DHT22;47256;18.904;-99.054;2023-02-01T02:15:16;24.10;64.40
61386;DHT22;47256;18.904;-99.054;2023-02-01T02:17:55;24.00;64.80
61386;DHT22;47256;18.904;-99.054;2023-02-01T02:37:39;23.80;66.90
61386;DHT22;47256;18.904;-99.054;2023-02-01T02:40:30;23.70;66.60
61386;DHT22;47256;18.904;-99.054;2023-02-01T02:43:05;23.70;67.60
61386;DHT22;47256;18.904;-99.054;2023-02-01T02:46:30;23.60;66.80
61386;DHT22;47256;18.904;-99.054;2023-02-01T02:52:02;23.50;69.30
61386;DHT22;47256;18.904;-99.054;2023-02-01T02:54:50;23.40;68.40
61386;DHT22;47256;18.904;-99.054;2023-02-01T02:57:38;23.40;67.60
61386;DHT22;47256;18.904;-99.054;2023-02-01T03:00:31;23.40;67.70
61386;DHT22;47256;18.904;-99.054;2023-02-01T03:03:18;23.30;68.50
61386;DHT22;47256;18.904;-99.054;2023-02-01T03:06:13;23.30;68.50
61386;DHT22;47256;18.904;-99.054;2023-02-01T03:08:42;23.20;70.60
61386;DHT22;47256;18.904;-99.054;2023-02-01T03:11:15;23.00;70.90
61386;DHT22;47256;18.904;-99.054;2023-02-01T03:13:52;22.90;71.60
61386;DHT22;47256;18.904;-99.054;2023-02-01T03:19:39;22.90;70.70
61386;DHT22;47256;18.904;-99.054;2023-02-01T03:22:14;22.80;71.20
61386;DHT22;47256;18.904;-99.054;2023-02-01T03:24:45;22.80;70.80
61386;DHT22;47256;18.904;-99.054;2023-02-01T03:27:22;22.80;71.00
61386;DHT22;47256;18.904;-99.054;2023-02-01T03:30:17;22.70;70.20
61386;DHT22;47256;18.904;-99.054;2023-02-01T03:32:49;22.60;71.30
61386;DHT22;47256;18.904;-99.054;2023-02-01T03:38:30;22.60;69.30
61386;DHT22;47256;18.904;-99.054;2023-02-01T03:41:12;22.50;69.10
61386;DHT22;47256;18.904;-99.054;2023-02-01T03:49:53;22.40;71.70
61386;DHT22;47256;18.904;-99.054;2023-02-01T03:53:02;22.30;71.60
61386;DHT22;47256;18.904;-99.054;2023-02-01T03:55:30;22.20;71.60
61386;DHT22;47256;18.904;-99.054;2023-02-01T03:58:21;22.10;70.50
61386;DHT22;47256;18.904;-99.054;2023-02-01T04:00:56;22.00;70.90
61386;DHT22;47256;18.904;-99.054;2023-02-01T04:03:25;22.00;69.60
61386;DHT22;47256;18.904;-99.054;2023-02-01T04:05:54;22.00;70.80
61386;DHT22;47256;18.904;-99.054;2023-02-01T04:08:25;22.10;71.30
61386;DHT22;47256;18.904;-99.054;2023-02-01T04:10:54;22.10;70.90
61386;DHT22;47256;18.904;-99.054;2023-02-01T04:13:22;22.10;70.70
61386;DHT22;47256;18.904;-99.054;2023-02-01T04:15:51;22.00;71.20
61386;DHT22;47256;18.904;-99.054;2023-02-01T04:18:19;21.90;70.80
61386;DHT22;47256;18.904;-99.054;2023-02-01T04:20:48;21.80;70.60
61386;DHT22;47256;18.904;-99.054;2023-02-01T04:23:15;21.80;72.50
61386;DHT22;47256;18.904;-99.054;2023-02-01T04:25:45;21.80;71.40
61386;DHT22;47256;18.904;-99.054;2023-02-01T04:28:12;21.80;72.20
61386;DHT22;47256;18.904;-99.054;2023-02-01T04:30:40;21.90;71.80
61386;DHT22;47256;18.904;-99.054;2023-02-01T04:33:07;21.80;70.70
61386;DHT22;47256;18.904;-99.054;2023-02-01T04:35:34;21.80;71.40
61386;DHT22;47256;18.904;-99.054;2023-02-01T04:38:02;21.70;71.50
61386;DHT22;47256;18.904;-99.054;2023-02-01T04:40:29;21.60;72.10
61386;DHT22;47256;18.904;-99.054;2023-02-01T04:42:57;21.60;72.30
61386;DHT22;47256;18.904;-99.054;2023-02-01T04:45:24;21.60;72.20
61386;DHT22;47256;18.904;-99.054;2023-02-01T04:47:51;21.60;71.60
61386;DHT22;47256;18.904;-99.054;2023-02-01T04:50:19;21.60;71.50
61386;DHT22;47256;18.904;-99.054;2023-02-01T04:52:47;21.60;71.40
61386;DHT22;47256;18.904;-99.054;2023-02-01T04:55:15;21.60;72.10
61386;DHT22;47256;18.904;-99.054;2023-02-01T04:57:43;21.50;71.40
61386;DHT22;47256;18.904;-99.054;2023-02-01T05:00:13;21.40;72.00
61386;DHT22;47256;18.904;-99.054;2023-02-01T05:02:41;21.20;72.80
61386;DHT22;47256;18.904;-99.054;2023-02-01T05:05:08;21.10;72.60
61386;DHT22;47256;18.904;-99.054;2023-02-01T05:07:36;21.00;72.20
61386;DHT22;47256;18.904;-99.054;2023-02-01T05:10:03;21.00;72.50
61386;DHT22;47256;18.904;-99.054;2023-02-01T05:12:31;21.00;73.30
61386;DHT22;47256;18.904;-99.054;2023-02-01T05:15:16;21.10;73.30
61386;DHT22;47256;18.904;-99.054;2023-02-01T05:17:44;21.20;73.80
61386;DHT22;47256;18.904;-99.054;2023-02-01T05:20:12;21.10;74.90
61386;DHT22;47256;18.904;-99.054;2023-02-01T05:22:41;21.00;75.30
61386;DHT22;47256;18.904;-99.054;2023-02-01T05:25:09;20.90;75.50
61386;DHT22;47256;18.904;-99.054;2023-02-01T05:27:36;20.80;76.10
61386;DHT22;47256;18.904;-99.054;2023-02-01T05:30:05;20.80;76.40
61386;DHT22;47256;18.904;-99.054;2023-02-01T05:32:33;20.80;75.60
61386;DHT22;47256;18.904;-99.054;2023-02-01T05:35:00;20.70;75.40
61386;DHT22;47256;18.904;-99.054;2023-02-01T05:37:28;20.70;75.10
61386;DHT22;47256;18.904;-99.054;2023-02-01T05:39:56;20.60;75.90
61386;DHT22;47256;18.904;-99.054;2023-02-01T05:42:23;20.60;75.70
61386;DHT22;47256;18.904;-99.054;2023-02-01T05:44:51;20.70;76.30
61386;DHT22;47256;18.904;-99.054;2023-02-01T05:47:18;20.70;76.10
61386;DHT22;47256;18.904;-99.054;2023-02-01T05:49:47;20.70;76.10
61386;DHT22;47256;18.904;-99.054;2023-02-01T05:52:14;20.60;76.80
61386;DHT22;47256;18.904;-99.054;2023-02-01T05:54:46;20.60;76.10
61386;DHT22;47256;18.904;-99.054;2023-02-01T05:57:16;20.60;76.60
61386;DHT22;47256;18.904;-99.054;2023-02-01T05:59:44;20.60;76.60
61386;DHT22;47256;18.904;-99.054;2023-02-01T06:02:12;20.60;76.00
61386;DHT22;47256;18.904;-99.054;2023-02-01T06:04:40;20.60;76.10
61386;DHT22;47256;18.904;-99.054;2023-02-01T06:07:09;20.40;76.50
61386;DHT22;47256;18.904;-99.054;2023-02-01T06:09:37;20.30;76.30
61386;DHT22;47256;18.904;-99.054;2023-02-01T06:12:04;20.30;76.20
61386;DHT22;47256;18.904;-99.054;2023-02-01T06:14:33;20.20;76.30
61386;DHT22;47256;18.904;-99.054;2023-02-01T06:17:01;20.10;76.50
61386;DHT22;47256;18.904;-99.054;2023-02-01T06:19:29;20.10;77.10
61386;DHT22;47256;18.904;-99.054;2023-02-01T06:21:57;20.20;76.70
61386;DHT22;47256;18.904;-99.054;2023-02-01T06:24:24;20.20;76.50
61386;DHT22;47256;18.904;-99.054;2023-02-01T06:26:52;20.20;76.30
61386;DHT22;47256;18.904;-99.054;2023-02-01T06:29:19;20.10;76.90
61386;DHT22;47256;18.904;-99.054;2023-02-01T06:31:47;20.10;76.80
61386;DHT22;47256;18.904;-99.054;2023-02-01T06:34:14;20.00;75.80
61386;DHT22;47256;18.904;-99.054;2023-02-01T06:36:41;20.00;76.70
61386;DHT22;47256;18.904;-99.054;2023-02-01T06:39:09;20.00;76.50
61386;DHT22;47256;18.904;-99.054;2023-02-01T06:41:36;19.90;76.90
61386;DHT22;47256;18.904;-99.054;2023-02-01T06:44:03;19.90;76.50
61386;DHT22;47256;18.904;-99.054;2023-02-01T06:46:31;19.80;74.90
61386;DHT22;47256;18.904;-99.054;2023-02-01T06:48:58;19.80;74.60
61386;DHT22;47256;18.904;-99.054;2023-02-01T06:51:26;19.70;72.70
61386;DHT22;47256;18.904;-99.054;2023-02-01T06:53:56;19.70;74.70
61386;DHT22;47256;18.904;-99.054;2023-02-01T06:56:24;19.70;73.50
61386;DHT22;47256;18.904;-99.054;2023-02-01T06:58:52;19.70;74.90
61386;DHT22;47256;18.904;-99.054;2023-02-01T07:01:20;19.70;75.10
61386;DHT22;47256;18.904;-99.054;2023-02-01T07:03:49;19.70;75.70
61386;DHT22;47256;18.904;-99.054;2023-02-01T07:06:18;19.70;75.10
61386;DHT22;47256;18.904;-99.054;2023-02-01T07:08:45;19.70;75.40
61386;DHT22;47256;18.904;-99.054;2023-02-01T07:11:14;19.60;75.00
61386;DHT22;47256;18.904;-99.054;2023-02-01T07:13:41;19.60;75.30
61386;DHT22;47256;18.904;-99.054;2023-02-01T07:16:14;19.50;75.30
61386;DHT22;47256;18.904;-99.054;2023-02-01T07:18:42;19.40;75.10
61386;DHT22;47256;18.904;-99.054;2023-02-01T07:21:09;19.40;75.10
61386;DHT22;47256;18.904;-99.054;2023-02-01T07:23:37;19.30;74.60
61386;DHT22;47256;18.904;-99.054;2023-02-01T07:26:06;19.30;75.40
61386;DHT22;47256;18.904;-99.054;2023-02-01T07:28:35;19.30;77.10
61386;DHT22;47256;18.904;-99.054;2023-02-01T07:31:04;19.30;75.40
61386;DHT22;47256;18.904;-99.054;2023-02-01T07:33:32;19.30;75.90
61386;DHT22;47256;18.904;-99.054;2023-02-01T07:36:02;19.30;74.60
61386;DHT22;47256;18.904;-99.054;2023-02-01T07:38:30;19.30;74.20
61386;DHT22;47256;18.904;-99.054;2023-02-01T07:41:06;19.30;74.60
61386;DHT22;47256;18.904;-99.054;2023-02-01T07:43:35;19.30;73.50
61386;DHT22;47256;18.904;-99.054;2023-02-01T07:46:04;19.30;73.70
61386;DHT22;47256;18.904;-99.054;2023-02-01T07:48:32;19.20;73.30
61386;DHT22;47256;18.904;-99.054;2023-02-01T07:51:09;19.10;74.00
61386;DHT22;47256;18.904;-99.054;2023-02-01T07:53:38;19.10;73.50
61386;DHT22;47256;18.904;-99.054;2023-02-01T07:56:15;19.20;74.00
61386;DHT22;47256;18.904;-99.054;2023-02-01T07:58:42;19.20;74.00
61386;DHT22;47256;18.904;-99.054;2023-02-01T08:01:24;19.10;75.10
61386;DHT22;47256;18.904;-99.054;2023-02-01T08:03:54;19.00;74.20
61386;DHT22;47256;18.904;-99.054;2023-02-01T08:06:24;19.00;74.70
61386;DHT22;47256;18.904;-99.054;2023-02-01T08:08:52;19.00;74.70
61386;DHT22;47256;18.904;-99.054;2023-02-01T08:11:21;19.00;75.10
61386;DHT22;47256;18.904;-99.054;2023-02-01T08:13:49;19.10;75.00
61386;DHT22;47256;18.904;-99.054;2023-02-01T08:16:18;19.00;74.10
61386;DHT22;47256;18.904;-99.054;2023-02-01T08:18:46;18.80;74.90
61386;DHT22;47256;18.904;-99.054;2023-02-01T08:21:17;18.60;76.00
61386;DHT22;47256;18.904;-99.054;2023-02-01T08:23:45;18.60;77.30
61386;DHT22;47256;18.904;-99.054;2023-02-01T08:26:15;18.60;77.00
61386;DHT22;47256;18.904;-99.054;2023-02-01T08:28:47;18.70;77.30
61386;DHT22;47256;18.904;-99.054;2023-02-01T08:31:18;18.80;76.60
61386;DHT22;47256;18.904;-99.054;2023-02-01T08:33:50;18.80;76.60
61386;DHT22;47256;18.904;-99.054;2023-02-01T08:36:18;18.80;77.40
61386;DHT22;47256;18.904;-99.054;2023-02-01T08:38:46;18.90;77.80
61386;DHT22;47256;18.904;-99.054;2023-02-01T08:41:16;18.90;78.10
61386;DHT22;47256;18.904;-99.054;2023-02-01T08:43:45;19.00;78.30
61386;DHT22;47256;18.904;-99.054;2023-02-01T08:46:13;19.00;77.90
61386;DHT22;47256;18.904;-99.054;2023-02-01T08:48:40;18.90;77.70
61386;DHT22;47256;18.904;-99.054;2023-02-01T08:51:11;18.90;78.40
61386;DHT22;47256;18.904;-99.054;2023-02-01T08:53:39;18.90;78.60
61386;DHT22;47256;18.904;-99.054;2023-02-01T08:56:10;18.80;78.70
61386;DHT22;47256;18.904;-99.054;2023-02-01T08:58:38;18.80;79.10
61386;DHT22;47256;18.904;-99.054;2023-02-01T09:01:08;18.80;79.40
61386;DHT22;47256;18.904;-99.054;2023-02-01T09:03:36;18.60;79.60
61386;DHT22;47256;18.904;-99.054;2023-02-01T09:06:05;18.60;79.80
61386;DHT22;47256;18.904;-99.054;2023-02-01T09:08:33;18.60;80.00
61386;DHT22;47256;18.904;-99.054;2023-02-01T09:11:03;18.60;79.60
61386;DHT22;47256;18.904;-99.054;2023-02-01T09:13:31;18.60;80.00
61386;DHT22;47256;18.904;-99.054;2023-02-01T09:15:59;18.60;79.80
61386;DHT22;47256;18.904;-99.054;2023-02-01T09:18:27;18.60;80.00
61386;DHT22;47256;18.904;-99.054;2023-02-01T09:20:55;18.60;80.20
61386;DHT22;47256;18.904;-99.054;2023-02-01T09:23:22;18.60;80.20
61386;DHT22;47256;18.904;-99.054;2023-02-01T09:25:49;18.50;79.90
61386;DHT22;47256;18.904;-99.054;2023-02-01T09:28:18;18.40;80.00
61386;DHT22;47256;18.904;-99.054;2023-02-01T09:30:45;18.40;81.20
61386;DHT22;47256;18.904;-99.054;2023-02-01T09:33:13;18.30;81.40
61386;DHT22;47256;18.904;-99.054;2023-02-01T09:35:40;18.30;80.60
61386;DHT22;47256;18.904;-99.054;2023-02-01T09:38:07;18.30;78.50
61386;DHT22;47256;18.904;-99.054;2023-02-01T09:40:35;18.20;79.60
61386;DHT22;47256;18.904;-99.054;2023-02-01T09:43:24;18.10;79.80
61386;DHT22;47256;18.904;-99.054;2023-02-01T09:46:11;18.10;80.70
61386;DHT22;47256;18.904;-99.054;2023-02-01T09:48:45;18.10;80.60
61386;DHT22;47256;18.904;-99.054;2023-02-01T09:51:19;18.10;80.90
61386;DHT22;47256;18.904;-99.054;2023-02-01T09:56:46;18.10;81.20
61386;DHT22;47256;18.904;-99.054;2023-02-01T09:59:32;18.10;81.40
61386;DHT22;47256;18.904;-99.054;2023-02-01T10:02:03;18.10;81.10
61386;DHT22;47256;18.904;-99.054;2023-02-01T10:04:31;18.10;81.40
61386;DHT22;47256;18.904;-99.054;2023-02-01T10:09:59;18.00;82.60
61386;DHT22;47256;18.904;-99.054;2023-02-01T10:16:10;18.00;80.30
61386;DHT22;47256;18.904;-99.054;2023-02-01T10:21:10;17.80;81.20
61386;DHT22;47256;18.904;-99.054;2023-02-01T10:26:44;17.70;80.60
61386;DHT22;47256;18.904;-99.054;2023-02-01T10:29:18;17.60;82.70
61386;DHT22;47256;18.904;-99.054;2023-02-01T10:31:47;17.70;82.90
61386;DHT22;47256;18.904;-99.054;2023-02-01T10:34:27;17.70;82.20
61386;DHT22;47256;18.904;-99.054;2023-02-01T10:39:56;17.60;79.10
61386;DHT22;47256;18.904;-99.054;2023-02-01T10:42:27;17.60;81.00
61386;DHT22;47256;18.904;-99.054;2023-02-01T10:45:00;17.60;81.40
61386;DHT22;47256;18.904;-99.054;2023-02-01T10:47:29;17.50;80.80
61386;DHT22;47256;18.904;-99.054;2023-02-01T10:52:58;17.60;81.40
61386;DHT22;47256;18.904;-99.054;2023-02-01T10:55:34;17.50;81.20
61386;DHT22;47256;18.904;-99.054;2023-02-01T10:58:05;17.40;81.40
61386;DHT22;47256;18.904;-99.054;2023-02-01T11:00:45;17.40;82.00
61386;DHT22;47256;18.904;-99.054;2023-02-01T11:03:41;17.40;82.90
61386;DHT22;47256;18.904;-99.054;2023-02-01T11:06:24;17.50;82.40
61386;DHT22;47256;18.904;-99.054;2023-02-01T11:08:56;17.50;81.80
61386;DHT22;47256;18.904;-99.054;2023-02-01T11:11:24;17.50;82.60
61386;DHT22;47256;18.904;-99.054;2023-02-01T11:14:00;17.40;82.40
61386;DHT22;47256;18.904;-99.054;2023-02-01T11:16:33;17.30;83.60
61386;DHT22;47256;18.904;-99.054;2023-02-01T11:19:01;17.30;83.10
61386;DHT22;47256;18.904;-99.054;2023-02-01T11:21:29;17.30;83.30
61386;DHT22;47256;18.904;-99.054;2023-02-01T11:24:04;17.30;83.90
61386;DHT22;47256;18.904;-99.054;2023-02-01T11:26:32;17.30;85.00
61386;DHT22;47256;18.904;-99.054;2023-02-01T11:29:11;17.40;83.80
61386;DHT22;47256;18.904;-99.054;2023-02-01T11:31:41;17.40;83.80
61386;DHT22;47256;18.904;-99.054;2023-02-01T11:34:17;17.40;84.00
61386;DHT22;47256;18.904;-99.054;2023-02-01T11:36:49;17.40;84.90
61386;DHT22;47256;18.904;-99.054;2023-02-01T11:39:25;17.40;84.10
61386;DHT22;47256;18.904;-99.054;2023-02-01T11:42:26;17.40;83.60
61386;DHT22;47256;18.904;-99.054;2023-02-01T11:47:54;17.30;85.40
61386;DHT22;47256;18.904;-99.054;2023-02-01T11:50:44;17.30;84.80
61386;DHT22;47256;18.904;-99.054;2023-02-01T11:53:32;17.30;85.60
61386;DHT22;47256;18.904;-99.054;2023-02-01T12:10:12;17.10;86.70
61386;DHT22;47256;18.904;-99.054;2023-02-01T12:18:26;17.00;87.90
61386;DHT22;47256;18.904;-99.054;2023-02-01T12:32:08;16.90;88.20
61386;DHT22;47256;18.904;-99.054;2023-02-01T12:39:59;16.70;88.60
61386;DHT22;47256;18.904;-99.054;2023-02-01T12:42:40;16.70;88.40
61386;DHT22;47256;18.904;-99.054;2023-02-01T12:47:52;16.70;88.40
61386;DHT22;47256;18.904;-99.054;2023-02-01T12:50:41;16.50;87.50
61386;DHT22;47256;18.904;-99.054;2023-02-01T12:53:19;16.40;87.30
61386;DHT22;47256;18.904;-99.054;2023-02-01T12:55:56;16.30;87.50
61386;DHT22;47256;18.904;-99.054;2023-02-01T12:58:44;16.30;87.90
61386;DHT22;47256;18.904;-99.054;2023-02-01T13:07:01;16.30;89.10
61386;DHT22;47256;18.904;-99.054;2023-02-01T13:12:25;16.40;89.00
61386;DHT22;47256;18.904;-99.054;2023-02-01T13:15:17;16.40;88.90
61386;DHT22;47256;18.904;-99.054;2023-02-01T13:17:47;16.30;88.90
61386;DHT22;47256;18.904;-99.054;2023-02-01T13:20:30;16.30;89.90
61386;DHT22;47256;18.904;-99.054;2023-02-01T13:27:58;16.20;89.10
61386;DHT22;47256;18.904;-99.054;2023-02-01T13:42:02;16.30;89.50
61386;DHT22;47256;18.904;-99.054;2023-02-01T13:44:43;16.30;88.70
61386;DHT22;47256;18.904;-99.054;2023-02-01T13:49:52;16.40;88.60
61386;DHT22;47256;18.904;-99.054;2023-02-01T13:52:25;16.50;89.30
61386;DHT22;47256;18.904;-99.054;2023-02-01T13:55:24;16.60;89.70
61386;DHT22;47256;18.904;-99.054;2023-02-01T13:58:09;16.60;89.20
61386;DHT22;47256;18.904;-99.054;2023-02-01T14:00:40;16.60;89.90
61386;DHT22;47256;18.904;-99.054;2023-02-01T14:03:12;16.70;89.90
61386;DHT22;47256;18.904;-99.054;2023-02-01T14:08:21;16.80;90.20
61386;DHT22;47256;18.904;-99.054;2023-02-01T14:10:55;16.90;89.80
61386;DHT22;47256;18.904;-99.054;2023-02-01T14:13:39;17.00;90.00
61386;DHT22;47256;18.904;-99.054;2023-02-01T14:16:21;17.10;90.10
61386;DHT22;47256;18.904;-99.054;2023-02-01T14:18:58;17.30;89.70
61386;DHT22;47256;18.904;-99.054;2023-02-01T14:21:31;17.40;90.00
61386;DHT22;47256;18.904;-99.054;2023-02-01T14:26:52;17.70;88.40
61386;DHT22;47256;18.904;-99.054;2023-02-01T14:29:33;17.80;87.80
61386;DHT22;47256;18.904;-99.054;2023-02-01T14:34:49;18.10;88.50
61386;DHT22;47256;18.904;-99.054;2023-02-01T14:50:41;18.90;87.50
61386;DHT22;47256;18.904;-99.054;2023-02-01T14:55:42;19.30;88.70
61386;DHT22;47256;18.904;-99.054;2023-02-01T15:01:14;19.60;87.10
61386;DHT22;47256;18.904;-99.054;2023-02-01T15:04:08;19.80;87.80
61386;DHT22;47256;18.904;-99.054;2023-02-01T15:06:40;20.10;83.90
61386;DHT22;47256;18.904;-99.054;2023-02-01T15:12:16;20.40;79.90
61386;DHT22;47256;18.904;-99.054;2023-02-01T15:15:13;20.50;77.10
61386;DHT22;47256;18.904;-99.054;2023-02-01T15:17:41;20.70;77.20
61386;DHT22;47256;18.904;-99.054;2023-02-01T15:22:42;20.90;79.20
61386;DHT22;47256;18.904;-99.054;2023-02-01T15:25:19;21.10;78.00
61386;DHT22;47256;18.904;-99.054;2023-02-01T15:27:48;21.20;76.00
61386;DHT22;47256;18.904;-99.054;2023-02-01T15:30:24;21.40;79.30
61386;DHT22;47256;18.904;-99.054;2023-02-01T15:33:04;21.50;77.10
61386;DHT22;47256;18.904;-99.054;2023-02-01T15:46:45;22.30;75.70
61386;DHT22;47256;18.904;-99.054;2023-02-01T15:49:30;22.40;71.10
61386;DHT22;47256;18.904;-99.054;2023-02-01T15:52:01;22.50;71.60
61386;DHT22;47256;18.904;-99.054;2023-02-01T15:54:51;22.60;73.10
61386;DHT22;47256;18.904;-99.054;2023-02-01T15:57:31;22.80;70.70
61386;DHT22;47256;18.904;-99.054;2023-02-01T16:00:04;23.00;71.70
61386;DHT22;47256;18.904;-99.054;2023-02-01T16:02:52;23.10;72.30
61386;DHT22;47256;18.904;-99.054;2023-02-01T16:05:40;23.40;73.10
61386;DHT22;47256;18.904;-99.054;2023-02-01T16:08:13;23.60;72.90
61386;DHT22;47256;18.904;-99.054;2023-02-01T16:10:45;23.70;70.50
61386;DHT22;47256;18.904;-99.054;2023-02-01T16:13:14;23.80;69.50
61386;DHT22;47256;18.904;-99.054;2023-02-01T16:15:42;24.00;68.40
61386;DHT22;47256;18.904;-99.054;2023-02-01T16:18:11;24.10;69.70
61386;DHT22;47256;18.904;-99.054;2023-02-01T16:20:40;24.20;66.40
61386;DHT22;47256;18.904;-99.054;2023-02-01T16:23:09;24.40;66.70
61386;DHT22;47256;18.904;-99.054;2023-02-01T16:25:38;24.40;63.50
61386;DHT22;47256;18.904;-99.054;2023-02-01T16:28:06;24.50;65.80
61386;DHT22;47256;18.904;-99.054;2023-02-01T16:30:33;24.70;64.70
61386;DHT22;47256;18.904;-99.054;2023-02-01T16:33:02;24.90;65.20
61386;DHT22;47256;18.904;-99.054;2023-02-01T16:35:34;25.10;63.30
61386;DHT22;47256;18.904;-99.054;2023-02-01T16:38:16;25.20;61.10
61386;DHT22;47256;18.904;-99.054;2023-02-01T16:40:46;25.20;63.80
61386;DHT22;47256;18.904;-99.054;2023-02-01T16:43:22;25.40;63.40
61386;DHT22;47256;18.904;-99.054;2023-02-01T16:45:51;25.50;62.90
61386;DHT22;47256;18.904;-99.054;2023-02-01T16:48:28;25.70;61.00
61386;DHT22;47256;18.904;-99.054;2023-02-01T16:51:00;25.90;62.00
61386;DHT22;47256;18.904;-99.054;2023-02-01T16:53:30;25.90;60.60
61386;DHT22;47256;18.904;-99.054;2023-02-01T16:55:58;25.90;60.20
61386;DHT22;47256;18.904;-99.054;2023-02-01T16:58:26;25.90;61.40
61386;DHT22;47256;18.904;-99.054;2023-02-01T17:00:54;26.00;59.00
61386;DHT22;47256;18.904;-99.054;2023-02-01T17:03:22;26.10;61.50
61386;DHT22;47256;18.904;-99.054;2023-02-01T17:05:52;26.30;60.30
61386;DHT22;47256;18.904;-99.054;2023-02-01T17:08:35;26.40;60.20
61386;DHT22;47256;18.904;-99.054;2023-02-01T17:11:05;26.60;58.70
61386;DHT22;47256;18.904;-99.054;2023-02-01T17:13:33;26.80;60.80
61386;DHT22;47256;18.904;-99.054;2023-02-01T17:19:14;27.00;55.90
61386;DHT22;47256;18.904;-99.054;2023-02-01T17:21:52;27.10;60.80
61386;DHT22;47256;18.904;-99.054;2023-02-01T17:24:23;27.20;58.00
61386;DHT22;47256;18.904;-99.054;2023-02-01T17:26:51;27.30;56.40
61386;DHT22;47256;18.904;-99.054;2023-02-01T17:29:18;27.30;57.80
61386;DHT22;47256;18.904;-99.054;2023-02-01T17:31:52;27.50;59.20
61386;DHT22;47256;18.904;-99.054;2023-02-01T17:34:20;27.60;56.20
61386;DHT22;47256;18.904;-99.054;2023-02-01T17:36:49;27.80;57.60
61386;DHT22;47256;18.904;-99.054;2023-02-01T17:39:17;27.80;56.90
61386;DHT22;47256;18.904;-99.054;2023-02-01T17:42:05;27.90;56.80
61386;DHT22;47256;18.904;-99.054;2023-02-01T17:44:32;28.10;57.40
61386;DHT22;47256;18.904;-99.054;2023-02-01T17:47:00;28.10;56.00
61386;DHT22;47256;18.904;-99.054;2023-02-01T17:49:27;28.10;55.40
61386;DHT22;47256;18.904;-99.054;2023-02-01T17:51:56;28.10;54.70
61386;DHT22;47256;18.904;-99.054;2023-02-01T17:54:23;28.10;55.40
61386;DHT22;47256;18.904;-99.054;2023-02-01T17:56:52;28.20;56.50
61386;DHT22;47256;18.904;-99.054;2023-02-01T17:59:19;28.20;55.60
61386;DHT22;47256;18.904;-99.054;2023-02-01T18:01:46;28.30;57.10
61386;DHT22;47256;18.904;-99.054;2023-02-01T18:04:16;28.40;56.50
61386;DHT22;47256;18.904;-99.054;2023-02-01T18:06:45;28.40;57.50
61386;DHT22;47256;18.904;-99.054;2023-02-01T18:09:12;28.50;58.20
61386;DHT22;47256;18.904;-99.054;2023-02-01T18:11:40;28.70;57.00
61386;DHT22;47256;18.904;-99.054;2023-02-01T18:14:12;28.70;55.80
61386;DHT22;47256;18.904;-99.054;2023-02-01T18:16:40;28.70;56.70
61386;DHT22;47256;18.904;-99.054;2023-02-01T18:19:08;28.60;56.40
61386;DHT22;47256;18.904;-99.054;2023-02-01T18:21:42;28.60;55.00
61386;DHT22;47256;18.904;-99.054;2023-02-01T18:24:14;28.60;57.60
61386;DHT22;47256;18.904;-99.054;2023-02-01T18:26:42;28.50;55.20